Time;durP1;ratioP1;P1;durP2;ratioP2;P2;SDS_P1;SDS_P2;PMS_P1;PMS_P2;Temp;Humidity;BMP_temperature;BMP_pressure;BME280_temperature;BME280_humidity;BME280_pressure;Samples;Min_cycle;Max_cycle;Signal;HPM_P1;HPM_P2
2022/06/21 00:00:32;;;;;;;4.30;3.97;;;19.60;54.00;;;;;;5084276;28;20190;-79
2022/06/21 00:03:22;;;;;;;4.20;3.90;;;19.70;54.30;;;;;;5090194;28;20171;-78
2022/06/21 00:05:50;;;;;;;3.90;3.70;;;19.70;53.90;;;;;;5071759;28;20208;-79
2022/06/21 00:08:26;;;;;;;4.18;3.88;;;19.70;54.00;;;;;;5083498;28;20266;-80
2022/06/21 00:10:53;;;;;;;3.90;3.70;;;19.60;54.00;;;;;;5082903;28;20196;-80
2022/06/21 00:13:26;;;;;;;4.10;3.85;;;19.40;54.70;;;;;;5086112;28;20191;-76
2022/06/21 00:15:55;;;;;;;4.10;3.80;;;19.10;55.70;;;;;;5081488;28;20199;-78
2022/06/21 00:18:23;;;;;;;3.75;3.53;;;18.90;56.70;;;;;;5077078;28;20187;-78
2022/06/21 00:20:50;;;;;;;4.03;3.72;;;18.90;57.10;;;;;;5080725;28;20179;-78
2022/06/21 00:23:20;;;;;;;3.92;3.72;;;18.80;56.80;;;;;;5085305;28;20253;-78
2022/06/21 00:25:46;;;;;;;4.10;3.78;;;18.80;57.60;;;;;;5084374;28;20417;-79
2022/06/21 00:28:13;;;;;;;3.85;3.65;;;18.70;57.60;;;;;;5084261;28;20180;-77
2022/06/21 00:30:39;;;;;;;4.30;4.00;;;18.60;58.60;;;;;;5066055;28;20286;-79
2022/06/21 00:33:11;;;;;;;4.15;3.95;;;18.70;58.60;;;;;;5087413;28;20257;-80
2022/06/21 00:35:37;;;;;;;4.38;4.07;;;18.80;58.20;;;;;;5086561;28;20202;-78
2022/06/21 00:38:03;;;;;;;4.75;4.45;;;18.90;57.70;;;;;;5085748;28;20179;-78
2022/06/21 00:40:32;;;;;;;4.60;4.30;;;19.00;57.00;;;;;;5084502;28;20183;-78
2022/06/21 00:43:11;;;;;;;4.80;4.35;;;18.90;57.70;;;;;;5092779;28;20214;-79
2022/06/21 00:45:40;;;;;;;4.15;3.95;;;18.60;59.10;;;;;;5084020;28;20314;-79
2022/06/21 00:48:20;;;;;;;4.10;3.90;;;18.30;60.30;;;;;;5086464;28;20176;-79
2022/06/21 00:50:51;;;;;;;4.63;4.20;;;18.20;60.60;;;;;;5090659;28;20498;-80
2022/06/21 00:53:19;;;;;;;4.50;4.20;;;18.20;60.90;;;;;;5087537;28;20180;-79
2022/06/21 00:55:55;;;;;;;4.50;4.30;;;18.30;61.10;;;;;;5085558;28;20214;-79
2022/06/21 00:58:23;;;;;;;4.10;3.90;;;18.50;60.20;;;;;;5086065;28;20215;-78
2022/06/21 01:01:04;;;;;;;4.10;3.80;;;18.50;59.90;;;;;;5082507;28;20179;-78
2022/06/21 01:03:40;;;;;;;4.20;3.90;;;18.50;60.10;;;;;;5087174;28;20178;-80
2022/06/21 01:06:15;;;;;;;4.25;3.95;;;18.40;60.90;;;;;;5086033;28;20211;-78
2022/06/21 01:08:46;;;;;;;3.92;3.72;;;18.30;60.60;;;;;;5082712;28;20185;-79
2022/06/21 01:11:17;;;;;;;3.90;3.70;;;18.30;61.30;;;;;;5067082;28;20185;-79
2022/06/21 01:13:46;;;;;;;4.28;3.97;;;18.20;61.30;;;;;;5092310;28;20182;-79
2022/06/21 01:16:13;;;;;;;4.33;3.93;;;18.00;61.90;;;;;;5082370;28;20206;-79
2022/06/21 01:18:40;;;;;;;4.20;3.80;;;18.00;62.00;;;;;;5067622;28;20182;-79
2022/06/21 01:21:09;;;;;;;3.83;3.50;;;17.80;62.50;;;;;;5049021;28;20202;-78
2022/06/21 01:23:51;;;;;;;3.83;3.53;;;17.50;63.80;;;;;;5083693;28;20252;-79
2022/06/21 01:26:51;;;;;;;4.73;3.50;;;17.30;64.20;;;;;;5086451;28;20187;-80
2022/06/21 01:29:20;;;;;;;3.70;3.40;;;17.50;64.00;;;;;;5086400;28;20198;-78
2022/06/21 01:31:47;;;;;;;3.83;3.53;;;17.60;63.30;;;;;;5078258;28;20304;-79
2022/06/21 01:34:17;;;;;;;3.30;3.10;;;17.80;62.60;;;;;;5086082;28;20209;-78
2022/06/21 01:37:08;;;;;;;3.50;3.30;;;17.60;63.00;;;;;;5080047;28;20216;-81
2022/06/21 01:39:46;;;;;;;3.50;3.30;;;17.40;63.70;;;;;;5078448;28;20255;-77
2022/06/21 01:42:28;;;;;;;4.17;3.27;;;17.20;64.80;;;;;;5083373;28;20187;-78
2022/06/21 01:44:59;;;;;;;3.63;3.33;;;17.10;65.40;;;;;;5079102;28;20593;-79
2022/06/21 01:47:31;;;;;;;3.40;3.20;;;17.10;65.40;;;;;;5082240;28;20193;-80
2022/06/21 01:50:03;;;;;;;3.33;3.07;;;17.00;66.00;;;;;;5077123;28;20229;-80
2022/06/21 01:52:31;;;;;;;3.50;3.30;;;17.00;66.20;;;;;;5063751;28;20339;-80
2022/06/21 01:55:06;;;;;;;3.27;3.00;;;16.90;66.00;;;;;;5082617;28;20207;-80
2022/06/21 01:57:32;;;;;;;3.10;2.90;;;16.80;66.90;;;;;;5076811;28;20301;-78
2022/06/21 01:59:58;;;;;;;3.17;2.97;;;16.80;66.70;;;;;;5082317;28;20195;-79
2022/06/21 02:02:30;;;;;;;3.10;2.90;;;16.70;67.40;;;;;;5080656;28;20180;-79
2022/06/21 02:05:18;;;;;;;2.93;2.83;;;16.70;67.30;;;;;;5078526;28;20274;-80
2022/06/21 02:07:48;;;;;;;3.37;3.07;;;16.70;66.90;;;;;;5072076;28;20190;-82
2022/06/21 02:10:22;;;;;;;3.13;2.87;;;16.70;67.10;;;;;;5079529;28;20306;-77
2022/06/21 02:13:12;;;;;;;3.23;2.93;;;16.70;66.80;;;;;;5081493;28;20213;-80
2022/06/21 02:15:54;;;;;;;3.00;2.80;;;16.70;66.80;;;;;;5080898;28;20269;-80
2022/06/21 02:18:21;;;;;;;3.50;3.20;;;16.70;66.40;;;;;;5078172;28;20191;-79
2022/06/21 02:21:06;;;;;;;3.30;3.10;;;16.70;66.80;;;;;;5080122;28;20181;-79
2022/06/21 02:23:32;;;;;;;3.30;3.10;;;16.60;67.00;;;;;;5064314;28;20257;-80
2022/06/21 02:25:58;;;;;;;3.40;3.10;;;16.50;67.40;;;;;;5079082;28;20670;-81
2022/06/21 02:28:28;;;;;;;3.20;3.00;;;16.50;67.30;;;;;;5081329;28;20192;-79
2022/06/21 02:30:56;;;;;;;2.97;2.87;;;16.60;66.80;;;;;;5081394;28;20187;-80
2022/06/21 02:33:28;;;;;;;3.27;2.93;;;16.50;67.10;;;;;;5080570;28;20206;-80
2022/06/21 02:36:04;;;;;;;2.93;2.73;;;16.40;67.70;;;;;;5079166;28;20215;-81
2022/06/21 02:38:56;;;;;;;3.27;3.07;;;16.40;67.90;;;;;;5074681;28;20753;-80
2022/06/21 02:41:34;;;;;;;3.57;3.27;;;16.60;68.10;;;;;;5073620;28;20206;-80
2022/06/21 02:44:09;;;;;;;3.37;3.07;;;16.70;65.90;;;;;;5076955;28;20233;-77
2022/06/21 02:46:38;;;;;;;3.40;3.20;;;16.50;66.80;;;;;;5078290;28;20558;-82
2022/06/21 02:49:17;;;;;;;3.30;2.93;;;16.60;66.60;;;;;;5079290;28;20192;-79
2022/06/21 02:51:50;;;;;;;3.20;3.00;;;16.70;66.30;;;;;;5086877;28;20181;-81
2022/06/21 02:54:34;;;;;;;3.07;2.90;;;16.60;65.90;;;;;;5078021;28;20204;-80
2022/06/21 02:57:15;;;;;;;3.47;3.17;;;16.60;65.90;;;;;;5055547;28;20234;-80
2022/06/21 02:59:42;;;;;;;3.40;3.20;;;16.60;66.50;;;;;;5080054;28;20221;-81
2022/06/21 03:02:16;;;;;;;3.37;3.07;;;16.40;66.50;;;;;;5072774;28;20195;-81
2022/06/21 03:04:52;;;;;;;3.80;3.10;;;16.30;67.10;;;;;;5077577;28;20278;-79
2022/06/21 03:07:24;;;;;;;3.10;2.90;;;16.10;67.50;;;;;;5074570;28;20194;-80
2022/06/21 03:09:52;;;;;;;4.83;2.83;;;16.10;67.20;;;;;;5081764;28;20213;-80
2022/06/21 03:12:28;;;;;;;3.10;2.90;;;16.30;66.90;;;;;;5076949;28;20197;-79
2022/06/21 03:14:58;;;;;;;2.97;2.80;;;16.30;66.30;;;;;;5077669;28;20791;-79
2022/06/21 03:17:35;;;;;;;2.80;2.70;;;16.20;67.20;;;;;;5076953;28;20215;-80
2022/06/21 03:20:03;;;;;;;2.93;2.73;;;16.10;67.60;;;;;;5071029;28;20663;-80
2022/06/21 03:22:34;;;;;;;2.83;2.73;;;16.10;67.90;;;;;;5078060;28;20568;-79
2022/06/21 03:25:04;;;;;;;3.33;3.03;;;16.10;68.40;;;;;;5077356;28;20250;-80
2022/06/21 03:27:37;;;;;;;3.50;3.20;;;16.10;67.50;;;;;;5075727;28;20214;-80
2022/06/21 03:30:04;;;;;;;3.30;3.10;;;16.10;68.10;;;;;;5079987;28;20716;-80
2022/06/21 03:32:33;;;;;;;3.27;2.97;;;15.90;68.40;;;;;;5079445;28;20277;-80
2022/06/21 03:35:01;;;;;;;3.17;2.77;;;15.70;69.30;;;;;;5056917;28;20220;-78
2022/06/21 03:37:27;;;;;;;4.70;3.23;;;15.70;70.20;;;;;;5081099;28;20266;-78
2022/06/21 03:42:43;;;;;;;3.03;2.83;;;15.50;70.90;;;;;;5073108;28;20222;-80
2022/06/21 03:45:24;;;;;;;2.70;2.60;;;15.40;71.50;;;;;;5077101;28;20234;-80
2022/06/21 03:47:59;;;;;;;3.77;3.07;;;15.50;71.70;;;;;;5085468;28;20737;-80
2022/06/21 03:50:35;;;;;;;3.20;2.90;;;15.60;71.20;;;;;;5076787;28;20187;-81
2022/06/21 03:53:30;;;;;;;3.00;2.80;;;15.60;71.00;;;;;;5076940;28;20182;-81
2022/06/21 03:56:05;;;;;;;3.17;2.97;;;15.60;70.80;;;;;;5079710;28;20253;-80
2022/06/21 03:58:49;;;;;;;3.00;2.70;;;15.50;71.30;;;;;;5081384;28;20751;-80
2022/06/21 04:01:33;;;;;;;3.17;2.90;;;15.60;70.90;;;;;;5079290;28;20188;-80
2022/06/21 04:04:21;;;;;;;3.40;3.20;;;15.60;71.00;;;;;;5076680;28;20206;-81
2022/06/21 04:06:55;;;;;;;3.07;2.87;;;15.60;70.90;;;;;;5070767;28;20179;-81
2022/06/21 04:09:37;;;;;;;3.23;3.03;;;15.70;70.70;;;;;;5078730;28;20185;-80
2022/06/21 04:12:12;;;;;;;3.90;3.10;;;15.60;70.60;;;;;;5083598;28;20229;-81
2022/06/21 04:14:46;;;;;;;5.13;3.00;;;15.90;70.10;;;;;;5078248;28;20587;-80
2022/06/21 04:17:20;;;;;;;2.87;2.77;;;16.20;68.70;;;;;;5081234;28;20195;-79
2022/06/21 04:19:58;;;;;;;3.10;2.90;;;16.10;68.20;;;;;;5084072;28;20177;-81
2022/06/21 04:22:52;;;;;;;4.87;2.87;;;16.00;69.00;;;;;;5085267;28;20197;-80
2022/06/21 04:25:41;;;;;;;3.53;3.30;;;16.00;68.90;;;;;;5078636;28;20227;-79
2022/06/21 04:28:32;;;;;;;2.87;2.70;;;16.00;69.10;;;;;;5078563;28;20274;-80
2022/06/21 04:31:04;;;;;;;3.30;3.00;;;15.90;69.00;;;;;;5075326;28;20192;-80
2022/06/21 04:33:44;;;;;;;5.13;2.90;;;16.00;69.00;;;;;;5083490;28;20188;-79
2022/06/21 04:36:23;;;;;;;5.63;3.30;;;16.10;67.90;;;;;;5080267;28;20282;-78
2022/06/21 04:39:09;;;;;;;3.30;3.00;;;16.20;67.80;;;;;;5078653;28;20316;-80
2022/06/21 04:41:49;;;;;;;3.03;2.80;;;16.20;68.00;;;;;;5090192;28;20201;-78
2022/06/21 04:44:22;;;;;;;3.97;3.10;;;16.20;68.00;;;;;;5097546;28;20695;-78
2022/06/21 04:47:07;;;;;;;3.70;2.87;;;16.40;67.10;;;;;;5093895;28;20187;-79
2022/06/21 04:49:56;;;;;;;3.00;2.80;;;16.30;67.10;;;;;;5077182;28;20194;-80
2022/06/21 04:52:34;;;;;;;3.00;2.80;;;16.40;66.90;;;;;;5077896;28;20196;-82
2022/06/21 04:55:02;;;;;;;3.13;2.93;;;16.50;66.20;;;;;;5080332;28;20311;-80
2022/06/21 04:57:30;;;;;;;4.10;3.30;;;16.50;66.30;;;;;;5081130;28;20231;-79
2022/06/21 05:00:03;;;;;;;3.30;3.00;;;16.50;66.10;;;;;;5079586;28;20184;-77
2022/06/21 05:02:32;;;;;;;3.00;2.80;;;16.60;65.80;;;;;;5073102;28;20186;-80
2022/06/21 05:05:17;;;;;;;3.10;2.90;;;16.70;65.00;;;;;;5078102;28;20211;-79
2022/06/21 05:07:58;;;;;;;3.20;3.00;;;16.70;64.70;;;;;;5080970;28;20217;-77
2022/06/21 05:10:28;;;;;;;4.23;3.20;;;16.90;64.30;;;;;;5079831;28;20209;-79
2022/06/21 05:12:56;;;;;;;3.40;3.20;;;16.90;64.20;;;;;;5062537;28;20196;-80
2022/06/21 05:15:28;;;;;;;3.47;3.27;;;16.90;63.50;;;;;;5069724;28;20220;-79
2022/06/21 05:18:16;;;;;;;5.67;3.30;;;16.90;63.60;;;;;;5076305;28;20297;-77
2022/06/21 05:20:52;;;;;;;3.57;3.27;;;17.00;63.30;;;;;;5069985;28;20181;-79
2022/06/21 05:23:20;;;;;;;4.43;3.20;;;17.10;63.00;;;;;;5086127;28;20184;-79
2022/06/21 05:25:47;;;;;;;3.70;3.40;;;17.20;62.50;;;;;;5088356;28;20187;-74
2022/06/21 05:28:21;;;;;;;3.93;3.57;;;17.30;62.40;;;;;;5103610;28;20199;-76
2022/06/21 05:31:08;;;;;;;3.57;3.27;;;17.20;62.60;;;;;;5089265;28;20684;-78
2022/06/21 05:34:03;;;;;;;3.50;3.20;;;17.10;62.40;;;;;;5084634;28;20222;-79
2022/06/21 05:36:39;;;;;;;3.40;3.20;;;17.20;62.50;;;;;;5083650;28;20209;-79
2022/06/21 05:39:39;;;;;;;3.43;3.13;;;17.30;62.20;;;;;;5055416;28;20231;-79
2022/06/21 05:42:06;;;;;;;5.07;3.33;;;17.40;62.00;;;;;;5080823;28;20193;-79
2022/06/21 05:44:36;;;;;;;3.80;3.50;;;17.50;61.30;;;;;;5083613;28;20215;-77
2022/06/21 05:47:11;;;;;;;3.23;3.00;;;17.80;61.10;;;;;;5082068;28;20181;-77
2022/06/21 05:49:40;;;;;;;3.77;3.47;;;17.90;60.30;;;;;;5075582;28;20195;-80
2022/06/21 05:52:15;;;;;;;3.40;3.20;;;17.80;60.70;;;;;;5072244;28;20188;-79
2022/06/21 05:54:48;;;;;;;3.77;3.40;;;17.70;60.60;;;;;;5081808;28;20674;-78
2022/06/21 05:57:18;;;;;;;5.17;3.40;;;17.70;60.90;;;;;;5080781;28;20200;-78
2022/06/21 05:59:45;;;;;;;3.57;3.27;;;17.70;61.00;;;;;;5080793;28;20191;-79
2022/06/21 06:02:28;;;;;;;4.27;3.50;;;17.90;60.70;;;;;;5082616;28;20202;-78
2022/06/21 06:05:05;;;;;;;3.60;3.30;;;18.10;60.20;;;;;;5081662;28;20210;-80
2022/06/21 06:07:36;;;;;;;3.67;3.37;;;18.10;60.10;;;;;;5077935;28;20179;-78
2022/06/21 06:10:04;;;;;;;3.53;3.23;;;18.20;59.30;;;;;;5073414;28;20674;-78
2022/06/21 06:12:37;;;;;;;4.47;3.70;;;18.20;58.70;;;;;;5081027;28;20199;-79
2022/06/21 06:15:09;;;;;;;3.73;3.43;;;18.40;59.10;;;;;;5077593;28;20808;-77
2022/06/21 06:17:35;;;;;;;3.90;3.60;;;18.60;58.20;;;;;;5083610;28;20888;-78
2022/06/21 06:20:12;;;;;;;4.67;3.50;;;18.60;57.80;;;;;;5081336;28;20180;-79
2022/06/21 06:22:51;;;;;;;3.67;3.37;;;18.60;57.70;;;;;;5080469;28;20183;-78
2022/06/21 06:25:23;;;;;;;3.57;3.37;;;18.60;57.40;;;;;;5078639;28;20268;-78
2022/06/21 06:27:57;;;;;;;3.90;3.60;;;18.60;57.80;;;;;;5081024;28;20191;-78
2022/06/21 06:30:41;;;;;;;3.70;3.40;;;18.70;57.80;;;;;;5076013;28;20179;-78
2022/06/21 06:33:29;;;;;;;3.70;3.40;;;18.80;57.30;;;;;;5068447;28;20196;-79
2022/06/21 06:35:57;;;;;;;4.03;3.65;;;19.00;56.30;;;;;;5074195;28;20743;-79
2022/06/21 06:38:23;;;;;;;6.78;4.13;;;19.30;56.30;;;;;;5075120;28;20236;-78
2022/06/21 06:40:56;;;;;;;4.68;3.72;;;19.50;55.30;;;;;;5073853;28;20183;-79
2022/06/21 06:43:32;;;;;;;5.65;3.90;;;19.80;54.40;;;;;;5069326;28;20247;-78
2022/06/21 06:45:58;;;;;;;6.05;3.80;;;19.70;53.60;;;;;;5064346;28;20240;-78
2022/06/21 06:48:32;;;;;;;4.15;3.83;;;19.60;54.40;;;;;;5075080;28;20222;-78
2022/06/21 06:51:53;;;;;;;4.10;3.70;;;19.70;54.40;;;;;;5073514;28;20749;-78
2022/06/21 06:54:38;;;;;;;4.63;3.60;;;19.80;53.70;;;;;;5028657;28;20232;-80
2022/06/21 06:57:16;;;;;;;3.83;3.47;;;19.90;53.60;;;;;;5065853;28;20247;-78
2022/06/21 06:59:43;;;;;;;4.40;4.00;;;19.90;54.20;;;;;;5054089;28;20179;-79
2022/06/21 07:02:22;;;;;;;4.10;3.70;;;19.80;54.00;;;;;;5074329;28;20194;-79
2022/06/21 07:05:03;;;;;;;4.60;4.20;;;19.90;53.50;;;;;;5068464;28;20290;-78
2022/06/21 07:07:51;;;;;;;4.68;4.10;;;20.00;53.70;;;;;;5067963;28;20814;-80
2022/06/21 07:10:21;;;;;;;5.03;3.90;;;20.10;53.60;;;;;;5073500;28;20190;-80
2022/06/21 07:12:48;;;;;;;4.40;3.60;;;20.30;52.70;;;;;;5071180;28;20190;-78
2022/06/21 07:15:14;;;;;;;4.60;4.15;;;20.50;52.50;;;;;;5074802;28;20264;-79
2022/06/21 07:17:52;;;;;;;4.25;3.95;;;20.40;51.80;;;;;;5073523;28;20211;-78
2022/06/21 07:20:26;;;;;;;4.65;4.13;;;20.40;51.90;;;;;;5055786;28;20795;-79
2022/06/21 07:22:55;;;;;;;4.40;4.00;;;20.40;52.70;;;;;;5073672;28;20189;-79
2022/06/21 07:26:06;;;;;;;4.43;4.13;;;20.30;54.50;;;;;;5071949;28;20200;-78
2022/06/21 07:29:01;;;;;;;4.55;3.90;;;20.30;54.50;;;;;;4998732;28;20282;-78
2022/06/21 07:31:35;;;;;;;4.43;3.70;;;20.50;53.30;;;;;;5006133;28;20202;-78
2022/06/21 07:34:16;;;;;;;4.65;4.25;;;20.50;53.20;;;;;;5060279;28;20219;-79
2022/06/21 07:36:43;;;;;;;4.20;3.92;;;20.50;54.00;;;;;;5073215;28;20222;-79
2022/06/21 07:39:22;;;;;;;4.65;4.00;;;20.60;53.30;;;;;;5078905;28;20168;-80
2022/06/21 07:42:03;;;;;;;6.45;4.20;;;20.60;53.20;;;;;;5076763;28;20574;-79
2022/06/21 07:44:40;;;;;;;4.65;4.30;;;20.60;52.80;;;;;;5078217;28;20233;-79
2022/06/21 07:47:13;;;;;;;5.03;4.20;;;20.90;53.60;;;;;;5078865;28;20190;-78
2022/06/21 07:49:46;;;;;;;6.30;4.40;;;21.00;52.10;;;;;;5074715;28;20535;-81
2022/06/21 07:52:19;;;;;;;6.18;4.75;;;21.20;52.30;;;;;;5083286;28;20246;-78
2022/06/21 07:54:51;;;;;;;5.55;5.03;;;21.40;51.30;;;;;;5078626;28;20223;-80
2022/06/21 07:57:21;;;;;;;4.70;4.40;;;21.60;51.00;;;;;;5065364;28;20246;-79
2022/06/21 07:59:57;;;;;;;5.82;5.00;;;21.90;50.50;;;;;;5082829;28;20173;-80
2022/06/21 08:08:39;;;;;;;5.43;5.03;;;22.00;50.20;;;;;;5049174;28;20668;-80
2022/06/21 08:11:13;;;;;;;5.43;5.03;;;22.00;50.10;;;;;;5045927;28;20289;-79
2022/06/21 08:13:40;;;;;;;5.32;4.93;;;22.20;49.80;;;;;;5065723;28;20203;-78
2022/06/21 08:16:13;;;;;;;7.05;5.65;;;22.30;50.40;;;;;;5084366;28;20230;-81
2022/06/21 08:18:53;;;;;;;5.85;5.22;;;22.40;49.70;;;;;;5076390;28;20196;-79
2022/06/21 08:21:25;;;;;;;5.75;5.25;;;22.50;49.50;;;;;;5077809;28;20174;-79
2022/06/21 08:24:06;;;;;;;5.55;5.15;;;22.40;50.40;;;;;;5077957;28;20592;-78
2022/06/21 08:26:47;;;;;;;5.63;5.22;;;22.20;50.60;;;;;;5077337;28;20215;-79
2022/06/21 08:29:32;;;;;;;5.82;5.32;;;22.30;51.40;;;;;;5089084;28;20176;-79
2022/06/21 08:32:05;;;;;;;5.90;5.40;;;22.30;51.30;;;;;;5081610;28;20185;-79
2022/06/21 08:34:46;;;;;;;5.80;5.30;;;22.50;50.60;;;;;;5082182;28;20264;-79
2022/06/21 08:37:24;;;;;;;6.47;5.65;;;22.80;50.10;;;;;;5072457;28;20234;-79
2022/06/21 08:39:52;;;;;;;8.60;5.53;;;22.70;50.70;;;;;;5078921;28;20269;-79
2022/06/21 08:42:47;;;;;;;6.18;5.70;;;22.70;51.20;;;;;;5082468;28;20202;-79
2022/06/21 08:45:41;;;;;;;8.85;5.72;;;22.90;50.20;;;;;;5079691;28;20207;-80
2022/06/21 08:48:38;;;;;;;5.97;5.47;;;22.90;50.40;;;;;;5056446;28;20638;-79
2022/06/21 08:51:36;;;;;;;5.68;5.28;;;23.00;50.10;;;;;;5081567;28;21023;-79
2022/06/21 08:54:05;;;;;;;6.53;6.05;;;23.20;50.40;;;;;;5074914;28;20694;-79
2022/06/21 08:56:42;;;;;;;6.35;5.85;;;23.30;50.20;;;;;;5083007;28;20207;-79
2022/06/21 08:59:15;;;;;;;6.10;5.45;;;23.60;49.10;;;;;;5085914;28;20175;-79
2022/06/21 09:01:44;;;;;;;6.97;6.10;;;23.80;49.10;;;;;;5075003;28;20655;-80
2022/06/21 09:04:16;;;;;;;7.57;5.93;;;24.00;48.30;;;;;;5079589;28;20206;-79
2022/06/21 09:07:16;;;;;;;7.43;6.80;;;24.10;48.70;;;;;;5078525;28;20184;-79
2022/06/21 09:09:54;;;;;;;7.05;6.32;;;24.20;47.40;;;;;;5079182;28;20194;-78
2022/06/21 09:12:49;;;;;;;6.50;5.93;;;24.30;47.90;;;;;;5075051;28;20270;-79
2022/06/21 09:15:17;;;;;;;6.80;6.25;;;24.40;48.00;;;;;;5075023;28;20223;-79
2022/06/21 09:18:01;;;;;;;6.68;6.18;;;24.60;46.80;;;;;;5078549;28;20208;-81
2022/06/21 09:20:27;;;;;;;6.97;6.57;;;24.90;46.60;;;;;;5079448;28;20180;-79
2022/06/21 09:23:03;;;;;;;8.02;6.13;;;25.20;46.10;;;;;;5079959;28;20190;-79
2022/06/21 09:25:51;;;;;;;6.72;6.18;;;25.30;45.70;;;;;;5082778;28;20344;-81
2022/06/21 09:28:26;;;;;;;6.88;6.22;;;25.10;45.20;;;;;;5070908;28;20183;-79
2022/06/21 09:31:08;;;;;;;8.05;6.30;;;25.10;46.00;;;;;;5081249;28;20198;-78
2022/06/21 09:33:56;;;;;;;7.13;6.53;;;25.40;45.20;;;;;;5080341;28;20219;-79
2022/06/21 09:36:42;;;;;;;7.10;6.50;;;25.50;44.70;;;;;;5079130;28;20298;-78
2022/06/21 09:39:17;;;;;;;7.25;6.22;;;25.30;44.50;;;;;;5070109;28;20199;-80
2022/06/21 09:41:44;;;;;;;6.72;6.40;;;25.60;44.00;;;;;;5082072;28;20662;-78
2022/06/21 09:44:38;;;;;;;6.53;6.00;;;25.70;43.40;;;;;;5080275;28;20261;-80
2022/06/21 09:47:27;;;;;;;6.53;6.00;;;25.80;43.30;;;;;;5071154;28;20192;-80
2022/06/21 09:50:00;;;;;;;6.95;6.45;;;25.90;43.20;;;;;;5076615;28;20176;-80
2022/06/21 09:52:34;;;;;;;7.57;6.57;;;26.10;43.20;;;;;;5066298;28;20196;-80
2022/06/21 09:55:31;;;;;;;7.18;6.60;;;26.00;44.00;;;;;;5079660;28;20232;-81
2022/06/21 09:58:19;;;;;;;7.32;6.82;;;26.00;44.20;;;;;;5082343;28;20211;-79
2022/06/21 10:01:06;;;;;;;7.50;6.90;;;26.00;43.70;;;;;;5067881;28;20245;-79
2022/06/21 10:04:10;;;;;;;7.10;6.70;;;26.30;43.40;;;;;;5073918;28;20201;-80
2022/06/21 10:06:44;;;;;;;7.90;7.28;;;26.40;43.60;;;;;;5077025;28;20202;-79
2022/06/21 10:09:43;;;;;;;7.65;7.00;;;26.70;43.80;;;;;;5078451;28;20262;-79
2022/06/21 10:12:43;;;;;;;8.10;7.32;;;27.00;43.40;;;;;;5083625;28;20228;-78
2022/06/21 10:15:21;;;;;;;6.57;6.20;;;27.40;41.00;;;;;;5077782;28;20210;-79
2022/06/21 10:17:46;;;;;;;7.13;6.53;;;27.10;40.70;;;;;;5080534;28;20681;-78
2022/06/21 10:20:37;;;;;;;7.60;7.10;;;27.40;41.30;;;;;;5064704;28;20188;-78
2022/06/21 10:23:39;;;;;;;7.32;6.68;;;27.50;41.00;;;;;;5074068;28;20214;-78
2022/06/21 10:26:22;;;;;;;7.25;6.70;;;27.50;40.40;;;;;;5073672;28;20279;-79
2022/06/21 10:29:26;;;;;;;6.97;6.55;;;27.40;40.40;;;;;;5080415;28;20187;-79
2022/06/21 10:32:16;;;;;;;6.45;5.97;;;27.70;39.90;;;;;;5061557;28;20271;-79
2022/06/21 10:34:57;;;;;;;7.10;6.50;;;27.90;39.20;;;;;;5067021;28;20199;-79
2022/06/21 10:37:54;;;;;;;7.95;7.10;;;28.30;39.40;;;;;;5080261;28;20199;-80
2022/06/21 10:40:35;;;;;;;6.95;6.35;;;28.20;39.60;;;;;;5078905;28;20202;-81
2022/06/21 10:43:17;;;;;;;6.95;6.45;;;28.10;39.70;;;;;;5073979;28;20186;-80
2022/06/21 10:45:46;;;;;;;6.28;5.65;;;28.00;39.80;;;;;;5077227;28;20214;-80
2022/06/21 10:48:36;;;;;;;6.68;6.18;;;28.20;39.00;;;;;;5083877;28;20183;-79
2022/06/21 10:51:29;;;;;;;6.47;5.88;;;28.20;39.70;;;;;;5080594;28;20190;-79
2022/06/21 10:54:05;;;;;;;7.70;6.00;;;28.10;39.80;;;;;;5080570;28;20195;-78
2022/06/21 10:57:11;;;;;;;6.13;5.65;;;28.50;38.60;;;;;;5079132;28;20262;-79
2022/06/21 11:02:30;;;;;;;6.63;6.13;;;29.10;37.90;;;;;;5081388;28;20210;-79
2022/06/21 11:05:24;;;;;;;7.07;6.57;;;29.30;37.90;;;;;;5077920;28;20286;-80
2022/06/21 11:08:00;;;;;;;8.68;6.60;;;29.50;37.30;;;;;;5075315;28;20743;-79
2022/06/21 11:10:36;;;;;;;6.85;6.35;;;30.00;36.50;;;;;;5081916;28;20642;-79
2022/06/21 11:13:06;;;;;;;7.75;7.25;;;30.10;36.50;;;;;;5079279;28;20212;-79
2022/06/21 11:16:02;;;;;;;7.25;6.75;;;29.90;36.20;;;;;;5066788;28;20626;-79
2022/06/21 11:18:49;;;;;;;6.88;6.47;;;30.00;36.60;;;;;;5087625;28;20202;-79
2022/06/21 11:21:47;;;;;;;7.65;7.13;;;29.60;36.80;;;;;;5080535;28;20194;-79
2022/06/21 11:24:22;;;;;;;7.47;6.90;;;29.50;36.00;;;;;;5079980;28;20215;-80
2022/06/21 11:27:09;;;;;;;7.80;7.10;;;29.80;36.20;;;;;;5077453;28;20187;-80
2022/06/21 11:29:43;;;;;;;8.73;6.95;;;29.90;36.10;;;;;;5074208;28;20176;-79
2022/06/21 11:32:49;;;;;;;7.32;6.72;;;30.00;36.00;;;;;;5080984;28;20213;-79
2022/06/21 11:35:38;;;;;;;7.85;6.85;;;30.20;36.30;;;;;;5071210;28;20215;-80
2022/06/21 11:38:32;;;;;;;7.25;6.65;;;29.70;36.80;;;;;;5073823;28;20218;-81
2022/06/21 11:41:05;;;;;;;7.47;6.90;;;29.70;37.00;;;;;;5083063;28;20179;-80
2022/06/21 11:43:54;;;;;;;8.07;7.53;;;29.80;36.90;;;;;;5068833;28;20237;-80
2022/06/21 11:46:38;;;;;;;7.50;7.07;;;29.80;36.50;;;;;;5083392;28;20263;-80
2022/06/21 11:49:28;;;;;;;9.73;7.43;;;29.80;36.30;;;;;;5092831;28;20232;-80
2022/06/21 11:52:09;;;;;;;7.93;7.43;;;30.20;36.10;;;;;;5072895;28;20210;-81
2022/06/21 11:54:49;;;;;;;8.10;7.40;;;30.30;35.70;;;;;;5078154;28;20207;-79
2022/06/21 11:57:40;;;;;;;8.27;7.47;;;30.30;35.30;;;;;;5076514;28;20211;-79
2022/06/21 12:00:31;;;;;;;7.60;6.88;;;30.50;35.10;;;;;;5077865;28;20172;-78
2022/06/21 12:02:59;;;;;;;7.35;6.75;;;30.30;35.70;;;;;;5078349;28;20203;-80
2022/06/21 12:05:46;;;;;;;7.60;6.97;;;30.40;35.40;;;;;;5081879;28;20598;-79
2022/06/21 12:08:37;;;;;;;7.25;6.72;;;30.70;35.30;;;;;;5082300;28;20176;-80
2022/06/21 12:11:27;;;;;;;8.02;7.47;;;31.10;34.80;;;;;;5081215;28;20542;-81
2022/06/21 12:14:29;;;;;;;9.75;8.20;;;31.50;33.70;;;;;;5089377;28;20170;-79
2022/06/21 12:17:09;;;;;;;7.78;7.28;;;31.50;33.60;;;;;;5074053;28;20669;-81
2022/06/21 12:19:42;;;;;;;8.32;7.78;;;31.40;33.90;;;;;;5084773;28;20270;-79
2022/06/21 12:22:22;;;;;;;11.18;8.20;;;31.70;33.40;;;;;;5082437;28;20172;-79
2022/06/21 12:24:49;;;;;;;8.73;8.23;;;32.00;33.30;;;;;;5084856;28;20256;-81
2022/06/21 12:27:16;;;;;;;8.90;8.20;;;32.10;32.90;;;;;;5081380;28;20188;-81
2022/06/21 12:29:42;;;;;;;8.75;8.05;;;31.90;33.30;;;;;;5086264;28;20193;-82
2022/06/21 12:32:20;;;;;;;9.25;8.55;;;32.00;33.90;;;;;;5086443;28;20190;-80
2022/06/21 12:34:55;;;;;;;8.40;7.90;;;31.80;33.60;;;;;;5083022;28;20780;-80
2022/06/21 12:37:37;;;;;;;8.65;7.95;;;32.00;33.50;;;;;;5089167;28;20191;-80
2022/06/21 12:40:13;;;;;;;8.20;7.72;;;32.10;33.10;;;;;;5094626;28;20172;-80
2022/06/21 12:43:03;;;;;;;8.70;8.00;;;32.20;32.80;;;;;;5079141;28;20179;-81
2022/06/21 12:45:50;;;;;;;9.43;8.73;;;32.50;32.80;;;;;;5087483;28;20299;-81
2022/06/21 12:48:29;;;;;;;8.88;8.32;;;32.40;33.40;;;;;;5080344;28;20229;-83
2022/06/21 12:51:11;;;;;;;10.05;9.23;;;32.60;32.40;;;;;;5083967;28;20202;-82
2022/06/21 12:54:01;;;;;;;9.43;8.63;;;32.80;32.20;;;;;;5082258;28;20171;-82
2022/06/21 12:56:43;;;;;;;9.43;8.82;;;33.00;32.10;;;;;;5087693;28;20204;-81
2022/06/21 12:59:15;;;;;;;9.75;9.05;;;33.40;31.50;;;;;;5087529;28;20186;-81
2022/06/21 13:02:02;;;;;;;9.40;8.70;;;33.70;31.10;;;;;;5086799;28;20172;-81
2022/06/21 13:04:44;;;;;;;8.80;8.40;;;33.20;32.10;;;;;;5069379;28;20209;-81
2022/06/21 13:07:31;;;;;;;10.30;8.82;;;33.60;31.50;;;;;;5083173;28;20190;-81
2022/06/21 13:10:25;;;;;;;8.60;8.10;;;33.70;31.60;;;;;;5088761;28;20189;-80
2022/06/21 13:13:06;;;;;;;9.10;8.40;;;33.40;31.30;;;;;;5079770;28;20187;-81
2022/06/21 13:15:44;;;;;;;9.13;8.52;;;33.30;31.90;;;;;;5080908;28;20284;-82
2022/06/21 13:18:59;;;;;;;9.30;8.80;;;33.10;32.00;;;;;;5084983;28;20838;-81
2022/06/21 13:21:36;;;;;;;10.43;8.80;;;32.80;32.30;;;;;;5081847;28;20273;-83
2022/06/21 13:24:10;;;;;;;10.65;9.50;;;33.00;32.30;;;;;;5084485;28;20230;-81
2022/06/21 13:27:14;;;;;;;9.57;9.07;;;33.60;31.90;;;;;;5079994;28;20187;-81
2022/06/21 13:30:04;;;;;;;9.18;8.50;;;34.20;30.60;;;;;;5083781;28;20183;-81
2022/06/21 13:32:43;;;;;;;9.88;9.25;;;33.90;31.20;;;;;;5083445;28;20211;-81
2022/06/21 13:35:20;;;;;;;9.63;9.13;;;34.60;30.00;;;;;;5081391;28;20211;-83
2022/06/21 13:37:59;;;;;;;11.50;9.50;;;34.50;30.20;;;;;;5089156;28;20207;-83
2022/06/21 13:41:03;;;;;;;9.60;8.85;;;35.10;29.90;;;;;;5091278;28;20186;-81
2022/06/21 13:43:36;;;;;;;9.95;9.45;;;35.30;29.20;;;;;;5066607;28;20293;-81
2022/06/21 13:46:26;;;;;;;10.02;9.43;;;35.20;29.60;;;;;;5084524;28;20229;-81
2022/06/21 13:49:00;;;;;;;9.35;8.60;;;35.30;29.50;;;;;;5083355;28;20202;-81
2022/06/21 13:51:55;;;;;;;10.50;9.73;;;34.90;29.60;;;;;;5067224;28;20653;-81
2022/06/21 13:54:36;;;;;;;10.23;9.45;;;35.20;29.70;;;;;;5074586;28;20211;-80